Time;durP1;ratioP1;P1;durP2;ratioP2;P2;SDS_P1;SDS_P2;PMS_P1;PMS_P2;Temp;Humidity;BMP_temperature;BMP_pressure;BME280_temperature;BME280_humidity;BME280_pressure;Samples;Min_cycle;Max_cycle;Signal;HPM_P1;HPM_P2
2021/05/19 00:00:24;;;;;;;9.57;4.10;;;;;;;;;;12846249;23;20423;-80
2021/05/19 00:05:27;;;;;;;6.63;4.20;;;;;;;;;;12824463;23;20196;-81
2021/05/19 00:10:30;;;;;;;6.90;4.10;;;;;;;;;;12846398;23;20755;-81
2021/05/19 00:15:32;;;;;;;9.30;4.70;;;;;;;;;;12844779;23;20214;-80
2021/05/19 00:20:35;;;;;;;8.13;4.53;;;;;;;;;;12840609;23;20287;-80
2021/05/19 00:25:38;;;;;;;6.30;3.90;;;;;;;;;;12825629;23;20625;-80
2021/05/19 00:30:41;;;;;;;6.37;4.13;;;;;;;;;;12842993;23;20182;-83
2021/05/19 00:35:44;;;;;;;6.90;4.10;;;;;;;;;;12844808;23;20184;-83
2021/05/19 00:40:49;;;;;;;9.33;4.80;;;;;;;;;;12844423;23;20199;-82
2021/05/19 00:45:52;;;;;;;6.73;4.23;;;;;;;;;;12843960;23;20250;-81
2021/05/19 00:50:55;;;;;;;8.13;4.90;;;;;;;;;;12843069;23;20665;-82
2021/05/19 00:55:57;;;;;;;8.33;5.00;;;;;;;;;;12847375;23;20683;-80
2021/05/19 01:01:00;;;;;;;8.07;4.80;;;;;;;;;;12822644;23;20200;-81
2021/05/19 01:06:06;;;;;;;7.90;5.07;;;;;;;;;;12825633;23;20207;-81
2021/05/19 01:11:10;;;;;;;7.83;4.83;;;;;;;;;;12844448;23;20262;-80
2021/05/19 01:16:13;;;;;;;10.83;5.53;;;;;;;;;;12847326;23;20187;-81
2021/05/19 01:21:16;;;;;;;13.17;5.50;;;;;;;;;;12828677;23;20214;-82
2021/05/19 01:26:20;;;;;;;14.87;5.40;;;;;;;;;;12849482;23;20525;-81
2021/05/19 01:31:23;;;;;;;12.23;5.93;;;;;;;;;;12845896;23;20463;-81
2021/05/19 01:36:25;;;;;;;11.70;5.80;;;;;;;;;;12851396;23;20211;-82
2021/05/19 01:41:28;;;;;;;14.07;6.07;;;;;;;;;;12845932;23;20199;-82
2021/05/19 01:46:30;;;;;;;13.87;6.00;;;;;;;;;;12847106;23;20175;-82
2021/05/19 01:51:34;;;;;;;15.60;6.03;;;;;;;;;;12848340;23;20540;-82
2021/05/19 01:56:38;;;;;;;14.03;5.60;;;;;;;;;;12850224;23;20183;-81
2021/05/19 02:01:42;;;;;;;15.43;5.60;;;;;;;;;;12846725;23;20211;-81
2021/05/19 02:06:46;;;;;;;15.67;5.70;;;;;;;;;;12828837;23;20176;-81
2021/05/19 02:11:49;;;;;;;12.13;5.63;;;;;;;;;;12826619;23;20633;-80
2021/05/19 02:16:51;;;;;;;16.83;6.77;;;;;;;;;;12826487;23;20186;-80
2021/05/19 02:21:54;;;;;;;14.13;6.67;;;;;;;;;;12847767;23;20221;-81
2021/05/19 02:26:57;;;;;;;16.47;7.30;;;;;;;;;;12850767;23;20191;-83
2021/05/19 02:31:59;;;;;;;17.73;7.20;;;;;;;;;;12845586;23;20180;-82
2021/05/19 02:37:02;;;;;;;16.47;8.03;;;;;;;;;;12848496;23;20186;-82
2021/05/19 02:42:06;;;;;;;19.37;7.37;;;;;;;;;;12846147;23;20207;-82
2021/05/19 02:47:08;;;;;;;17.43;8.57;;;;;;;;;;12847560;23;20231;-82
2021/05/19 02:52:11;;;;;;;15.57;8.70;;;;;;;;;;12858752;23;20655;-81
2021/05/19 02:57:14;;;;;;;17.13;9.03;;;;;;;;;;12839006;23;20246;-80
2021/05/19 03:02:16;;;;;;;13.00;8.73;;;;;;;;;;12853971;23;20633;-81
2021/05/19 03:07:19;;;;;;;19.83;10.47;;;;;;;;;;12852312;23;20206;-80
2021/05/19 03:12:23;;;;;;;17.60;10.33;;;;;;;;;;12828324;23;20175;-82
2021/05/19 03:17:26;;;;;;;15.50;9.83;;;;;;;;;;12829692;23;20785;-81
2021/05/19 03:22:28;;;;;;;14.97;9.90;;;;;;;;;;12846245;23;20211;-82
2021/05/19 03:27:32;;;;;;;15.10;9.37;;;;;;;;;;12827191;23;20716;-82
2021/05/19 03:32:34;;;;;;;16.00;9.23;;;;;;;;;;12841827;23;20165;-81
2021/05/19 03:37:38;;;;;;;15.57;9.10;;;;;;;;;;12826616;23;20262;-81
2021/05/19 03:42:41;;;;;;;15.93;9.27;;;;;;;;;;12825463;23;20204;-82
2021/05/19 03:47:45;;;;;;;15.30;8.40;;;;;;;;;;12823805;23;20207;-81
2021/05/19 03:52:47;;;;;;;14.40;8.53;;;;;;;;;;12843971;23;20191;-80
2021/05/19 03:57:51;;;;;;;13.37;8.70;;;;;;;;;;12825054;23;20514;-80
2021/05/19 04:02:53;;;;;;;15.80;8.43;;;;;;;;;;12821018;23;20286;-81
2021/05/19 04:07:56;;;;;;;15.07;8.10;;;;;;;;;;12847053;23;20175;-80
2021/05/19 04:13:00;;;;;;;14.60;7.83;;;;;;;;;;12823999;23;20176;-80
2021/05/19 04:18:03;;;;;;;12.67;8.07;;;;;;;;;;12843939;23;20210;-81
2021/05/19 04:23:10;;;;;;;12.53;7.20;;;;;;;;;;12844829;23;20703;-81
2021/05/19 04:28:14;;;;;;;13.83;7.57;;;;;;;;;;12845035;23;20179;-80
2021/05/19 04:33:18;;;;;;;18.90;7.40;;;;;;;;;;12840893;23;20199;-80
2021/05/19 04:38:20;;;;;;;21.53;7.43;;;;;;;;;;12846461;23;20286;-79
2021/05/19 04:43:24;;;;;;;13.93;7.17;;;;;;;;;;12843246;23;20532;-80
2021/05/19 04:48:27;;;;;;;12.93;7.33;;;;;;;;;;12822612;23;20211;-80
2021/05/19 04:53:29;;;;;;;14.53;7.23;;;;;;;;;;12823259;23;20175;-80
2021/05/19 04:58:32;;;;;;;13.83;5.97;;;;;;;;;;12824273;23;20210;-80
2021/05/19 05:03:35;;;;;;;12.53;6.50;;;;;;;;;;12838660;23;20195;-79
2021/05/19 05:08:37;;;;;;;15.30;6.37;;;;;;;;;;12847193;23;20704;-79
2021/05/19 05:13:40;;;;;;;12.63;6.37;;;;;;;;;;12822865;23;20255;-81
2021/05/19 05:18:43;;;;;;;13.37;5.97;;;;;;;;;;12821078;23;20246;-81
2021/05/19 05:23:46;;;;;;;18.33;7.23;;;;;;;;;;12844860;23;20226;-80
2021/05/19 05:28:49;;;;;;;13.20;6.00;;;;;;;;;;12845631;23;20179;-81
2021/05/19 05:33:52;;;;;;;17.67;6.17;;;;;;;;;;12837925;23;20210;-80
2021/05/19 05:38:54;;;;;;;10.57;5.37;;;;;;;;;;12823959;23;20235;-82
2021/05/19 05:43:57;;;;;;;12.93;5.70;;;;;;;;;;12841364;23;20402;-79
2021/05/19 05:49:00;;;;;;;13.57;5.40;;;;;;;;;;12820869;23;20637;-82
2021/05/19 05:54:03;;;;;;;16.47;6.50;;;;;;;;;;12845205;23;20172;-82
2021/05/19 05:59:06;;;;;;;12.43;6.37;;;;;;;;;;12843494;23;20688;-82
2021/05/19 06:04:10;;;;;;;15.30;6.03;;;;;;;;;;12847525;23;20200;-84
2021/05/19 06:09:12;;;;;;;12.90;6.37;;;;;;;;;;12846950;23;20180;-81
2021/05/19 06:14:18;;;;;;;15.20;6.10;;;;;;;;;;12848067;23;20202;-82
2021/05/19 06:19:20;;;;;;;16.80;7.37;;;;;;;;;;12840322;23;20207;-82
2021/05/19 06:24:23;;;;;;;15.73;6.80;;;;;;;;;;12847590;23;20176;-82
2021/05/19 06:29:27;;;;;;;19.37;7.83;;;;;;;;;;12845681;23;20250;-84
2021/05/19 06:34:29;;;;;;;13.97;6.87;;;;;;;;;;12847208;23;20522;-82
2021/05/19 06:39:33;;;;;;;18.03;8.13;;;;;;;;;;12847738;23;20759;-81
2021/05/19 06:44:36;;;;;;;15.00;7.80;;;;;;;;;;12847825;23;20216;-81
2021/05/19 06:49:38;;;;;;;16.40;7.63;;;;;;;;;;12822618;23;20219;-82
2021/05/19 06:54:42;;;;;;;18.63;8.80;;;;;;;;;;12826663;23;20172;-82
2021/05/19 06:59:45;;;;;;;19.73;8.83;;;;;;;;;;12843898;23;20207;-81
2021/05/19 07:04:47;;;;;;;16.93;8.67;;;;;;;;;;12844664;23;20442;-81
2021/05/19 07:09:50;;;;;;;17.00;9.07;;;;;;;;;;12844539;23;20183;-81
2021/05/19 07:14:57;;;;;;;18.67;10.33;;;;;;;;;;12847048;23;20179;-83
2021/05/19 07:19:59;;;;;;;20.13;8.93;;;;;;;;;;12841982;23;20589;-82
2021/05/19 07:25:02;;;;;;;20.50;10.87;;;;;;;;;;12847572;23;20280;-82
2021/05/19 07:30:06;;;;;;;18.13;10.33;;;;;;;;;;12824167;23;20697;-81
2021/05/19 07:35:09;;;;;;;19.57;9.83;;;;;;;;;;12844639;23;20183;-81
2021/05/19 07:40:12;;;;;;;19.10;10.43;;;;;;;;;;12845921;23;20200;-83
2021/05/19 07:45:16;;;;;;;21.40;9.63;;;;;;;;;;12846656;23;20190;-82
2021/05/19 07:50:17;;;;;;;18.03;9.07;;;;;;;;;;12842060;23;20231;-82
2021/05/19 07:55:23;;;;;;;17.47;8.13;;;;;;;;;;12846929;23;20283;-81
2021/05/19 08:00:31;;;;;;;19.43;8.07;;;;;;;;;;12823423;23;20200;-82
2021/05/19 08:05:32;;;;;;;14.97;7.33;;;;;;;;;;12823012;23;20243;-82
2021/05/19 08:10:33;;;;;;;14.87;7.63;;;;;;;;;;12844870;23;20176;-81
2021/05/19 08:15:36;;;;;;;16.63;8.30;;;;;;;;;;12824766;23;20191;-82
2021/05/19 08:20:37;;;;;;;17.67;7.57;;;;;;;;;;12820965;23;20755;-81
2021/05/19 08:25:40;;;;;;;13.17;7.47;;;;;;;;;;12846359;23;20222;-82
2021/05/19 08:30:43;;;;;;;17.33;7.40;;;;;;;;;;12843993;23;20168;-83
2021/05/19 08:35:46;;;;;;;11.73;5.47;;;;;;;;;;12842619;23;20176;-82
2021/05/19 08:40:49;;;;;;;12.27;6.73;;;;;;;;;;12841648;23;20222;-83
2021/05/19 08:45:52;;;;;;;10.67;6.00;;;;;;;;;;12822679;23;20263;-81
2021/05/19 08:50:55;;;;;;;13.50;6.73;;;;;;;;;;12845986;23;20210;-81
2021/05/19 08:55:58;;;;;;;18.87;8.30;;;;;;;;;;12843962;23;20175;-82
2021/05/19 09:01:01;;;;;;;16.37;7.53;;;;;;;;;;12843095;23;20208;-82
2021/05/19 09:06:06;;;;;;;16.80;7.63;;;;;;;;;;12843862;23;20195;-83
2021/05/19 09:11:13;;;;;;;17.87;7.70;;;;;;;;;;12843382;23;20655;-82
2021/05/19 09:16:25;;;;;;;16.63;7.73;;;;;;;;;;12838809;23;20266;-80
2021/05/19 09:21:36;;;;;;;20.27;8.27;;;;;;;;;;12823568;23;20199;-80
2021/05/19 09:27:00;;;;;;;15.87;8.63;;;;;;;;;;12841995;23;20564;-81
2021/05/19 09:32:04;;;;;;;13.90;5.60;;;;;;;;;;12816399;23;20254;-82
2021/05/19 09:37:13;;;;;;;8.07;3.00;;;;;;;;;;12846630;23;20180;-81
2021/05/19 09:42:16;;;;;;;6.60;2.57;;;;;;;;;;12828075;23;20238;-81
2021/05/19 09:47:39;;;;;;;5.17;1.80;;;;;;;;;;12823102;23;20188;-80
2021/05/19 09:53:01;;;;;;;3.90;1.80;;;;;;;;;;12847706;23;20180;-81
2021/05/19 09:58:03;;;;;;;5.83;1.77;;;;;;;;;;12823618;23;20227;-81
2021/05/19 10:03:11;;;;;;;3.03;1.57;;;;;;;;;;12824161;23;20212;-80
2021/05/19 10:08:14;;;;;;;3.73;1.70;;;;;;;;;;12848267;23;20911;-80
2021/05/19 10:13:16;;;;;;;6.83;1.83;;;;;;;;;;12848552;23;20180;-80
2021/05/19 10:18:21;;;;;;;4.57;1.60;;;;;;;;;;12822665;23;20190;-81
2021/05/19 10:23:24;;;;;;;3.70;1.70;;;;;;;;;;12847918;23;20633;-80
2021/05/19 10:28:37;;;;;;;3.50;1.57;;;;;;;;;;12846073;23;20175;-80
2021/05/19 10:33:45;;;;;;;4.17;1.70;;;;;;;;;;12824071;23;20819;-80
2021/05/19 10:39:18;;;;;;;1.97;1.50;;;;;;;;;;12846527;23;20168;-82
2021/05/19 10:44:21;;;;;;;2.80;1.60;;;;;;;;;;12847221;23;20211;-81
2021/05/19 10:49:45;;;;;;;3.37;1.57;;;;;;;;;;12821823;23;20616;-80
2021/05/19 11:00:22;;;;;;;3.97;1.77;;;;;;;;;;12842678;23;20273;-81
2021/05/19 11:05:28;;;;;;;2.80;1.83;;;;;;;;;;12845054;23;20258;-81
2021/05/19 11:10:32;;;;;;;2.83;1.70;;;;;;;;;;12845140;23;20207;-80
2021/05/19 11:15:51;;;;;;;3.57;1.53;;;;;;;;;;12826320;23;20477;-81
2021/05/19 11:20:55;;;;;;;4.03;1.50;;;;;;;;;;12843970;23;20588;-81
2021/05/19 11:26:10;;;;;;;2.97;1.47;;;;;;;;;;12845423;23;20271;-82
2021/05/19 11:31:14;;;;;;;2.33;1.40;;;;;;;;;;12819660;23;20519;-81
2021/05/19 11:36:28;;;;;;;3.40;1.40;;;;;;;;;;12845722;23;20175;-82
2021/05/19 11:41:31;;;;;;;4.10;1.40;;;;;;;;;;12822663;23;20585;-83
2021/05/19 11:46:41;;;;;;;3.60;1.73;;;;;;;;;;12843634;23;20183;-81
2021/05/19 11:51:44;;;;;;;5.63;1.90;;;;;;;;;;12824604;23;20178;-81
2021/05/19 11:56:47;;;;;;;2.10;1.40;;;;;;;;;;12844102;23;20184;-82
2021/05/19 12:02:07;;;;;;;4.00;1.80;;;;;;;;;;12841643;23;20671;-84
2021/05/19 12:07:14;;;;;;;3.43;1.77;;;;;;;;;;12849021;23;20175;-82
2021/05/19 12:12:17;;;;;;;3.20;1.67;;;;;;;;;;12826131;23;20183;-83
2021/05/19 12:17:22;;;;;;;3.47;1.73;;;;;;;;;;12822627;23;20215;-81
2021/05/19 12:22:26;;;;;;;3.60;1.87;;;;;;;;;;12844529;23;20265;-82
2021/05/19 12:27:29;;;;;;;3.83;1.80;;;;;;;;;;12824673;23;20230;-82
2021/05/19 12:32:34;;;;;;;4.20;2.07;;;;;;;;;;12840920;23;20502;-82
2021/05/19 12:37:43;;;;;;;3.67;1.70;;;;;;;;;;12845597;23;20176;-83
2021/05/19 12:42:46;;;;;;;4.13;1.83;;;;;;;;;;12841809;23;20770;-83
2021/05/19 12:47:57;;;;;;;3.93;1.80;;;;;;;;;;12841915;23;20176;-83
2021/05/19 12:53:01;;;;;;;4.13;1.97;;;;;;;;;;12822217;23;20172;-83
2021/05/19 12:58:07;;;;;;;3.90;1.87;;;;;;;;;;12844561;23;20252;-83
2021/05/19 13:03:11;;;;;;;2.73;1.40;;;;;;;;;;12837780;23;20290;-83
2021/05/19 13:08:18;;;;;;;2.80;1.30;;;;;;;;;;12844696;23;20175;-83
2021/05/19 13:13:30;;;;;;;2.87;1.27;;;;;;;;;;12841505;23;20187;-83
2021/05/19 13:18:36;;;;;;;2.77;1.40;;;;;;;;;;12840513;23;20528;-82
2021/05/19 13:23:44;;;;;;;1.93;1.30;;;;;;;;;;12820710;23;20619;-81
2021/05/19 13:28:47;;;;;;;3.17;1.50;;;;;;;;;;12841658;23;20270;-82
2021/05/19 13:33:58;;;;;;;3.10;1.57;;;;;;;;;;12819751;23;20186;-83
2021/05/19 13:39:01;;;;;;;4.90;1.87;;;;;;;;;;12823183;23;20180;-82
2021/05/19 13:44:04;;;;;;;4.50;1.57;;;;;;;;;;12842117;23;20290;-82
2021/05/19 13:49:24;;;;;;;1.67;1.20;;;;;;;;;;12840331;23;20516;-81
2021/05/19 13:54:28;;;;;;;1.80;1.40;;;;;;;;;;12844170;23;20437;-82
2021/05/19 13:59:31;;;;;;;1.63;1.30;;;;;;;;;;12841890;23;20611;-82
2021/05/19 14:04:33;;;;;;;2.97;1.60;;;;;;;;;;12824088;23;20215;-82
2021/05/19 14:09:37;;;;;;;4.17;1.60;;;;;;;;;;12844399;23;20677;-83
2021/05/19 14:14:43;;;;;;;2.67;1.67;;;;;;;;;;12839429;23;20194;-81
2021/05/19 14:30:31;;;;;;;3.87;2.00;;;;;;;;;;12825462;23;20180;-83
2021/05/19 14:36:01;;;;;;;3.27;1.80;;;;;;;;;;12822714;23;20578;-83
2021/05/19 14:46:56;;;;;;;6.87;2.47;;;;;;;;;;12771377;23;20182;-83
2021/05/19 15:02:44;;;;;;;3.40;2.00;;;;;;;;;;12823113;23;20249;-82
2021/05/19 15:07:46;;;;;;;6.03;2.00;;;;;;;;;;12843223;23;20495;-83
2021/05/19 15:12:50;;;;;;;6.17;2.20;;;;;;;;;;12844101;23;20712;-81
2021/05/19 15:17:53;;;;;;;3.00;2.03;;;;;;;;;;12840839;23;20183;-84
2021/05/19 15:22:55;;;;;;;3.80;2.10;;;;;;;;;;12847044;23;20235;-83
2021/05/19 15:27:59;;;;;;;3.53;2.10;;;;;;;;;;12842140;23;20180;-81
2021/05/19 15:33:02;;;;;;;4.03;1.87;;;;;;;;;;12844859;23;20254;-82
2021/05/19 15:38:05;;;;;;;5.03;1.90;;;;;;;;;;12845721;23;20183;-81
2021/05/19 15:43:08;;;;;;;7.10;2.67;;;;;;;;;;12840287;23;20211;-83
2021/05/19 15:48:11;;;;;;;4.63;2.03;;;;;;;;;;12843844;23;20210;-83
2021/05/19 15:53:13;;;;;;;4.57;2.23;;;;;;;;;;12843496;23;20250;-82
2021/05/19 15:58:16;;;;;;;4.57;2.30;;;;;;;;;;12844933;23;20175;-80
2021/05/19 16:03:22;;;;;;;4.40;2.30;;;;;;;;;;12841283;23;20207;-82
2021/05/19 16:08:26;;;;;;;3.23;2.30;;;;;;;;;;12824692;23;20202;-80
2021/05/19 16:13:29;;;;;;;3.10;2.17;;;;;;;;;;12843200;23;20536;-81
2021/05/19 16:18:32;;;;;;;2.23;1.90;;;;;;;;;;12841642;23;20187;-82
2021/05/19 16:23:34;;;;;;;3.97;2.10;;;;;;;;;;12842218;23;20366;-82
2021/05/19 16:28:39;;;;;;;2.97;1.80;;;;;;;;;;12845403;23;20684;-82
2021/05/19 16:34:08;;;;;;;3.17;2.10;;;;;;;;;;12842308;23;20183;-81
2021/05/19 16:39:11;;;;;;;3.90;1.83;;;;;;;;;;12845711;23;20176;-82
2021/05/19 16:44:15;;;;;;;3.27;1.80;;;;;;;;;;12871695;23;20199;-81
2021/05/19 16:49:18;;;;;;;3.80;2.10;;;;;;;;;;12844494;23;20254;-80
2021/05/19 16:54:22;;;;;;;4.30;2.00;;;;;;;;;;12844913;23;20182;-79
2021/05/19 16:59:26;;;;;;;5.33;2.20;;;;;;;;;;12835587;23;20184;-84
2021/05/19 17:10:03;;;;;;;6.87;2.70;;;;;;;;;;12840966;23;20772;-80
2021/05/19 17:15:09;;;;;;;7.13;2.80;;;;;;;;;;12819526;23;20185;-78
2021/05/19 17:20:13;;;;;;;5.57;3.23;;;;;;;;;;12835649;23;20246;-79
2021/05/19 17:25:20;;;;;;;4.10;2.90;;;;;;;;;;12839786;23;20211;-79
2021/05/19 17:30:29;;;;;;;4.93;2.93;;;;;;;;;;12838592;23;20226;-81
2021/05/19 17:35:34;;;;;;;4.83;2.73;;;;;;;;;;12835786;23;20187;-80
2021/05/19 17:40:39;;;;;;;3.97;2.00;;;;;;;;;;12837099;23;20259;-79
2021/05/19 17:45:45;;;;;;;3.90;1.70;;;;;;;;;;12837646;23;20207;-80
2021/05/19 17:50:51;;;;;;;2.77;1.20;;;;;;;;;;12839150;23;20179;-79
2021/05/19 17:55:56;;;;;;;1.50;1.30;;;;;;;;;;12843011;23;20275;-80
2021/05/19 18:01:02;;;;;;;3.23;1.23;;;;;;;;;;12839531;23;20294;-80
2021/05/19 18:06:09;;;;;;;1.57;1.30;;;;;;;;;;12839245;23;20195;-79
2021/05/19 18:11:18;;;;;;;4.63;2.50;;;;;;;;;;12840360;23;20258;-79
2021/05/19 21:07:41;;;;;;;4.43;2.30;;;;;;;;;;13041031;22;873957;-88
2021/05/19 21:12:43;;;;;;;3.57;2.47;;;;;;;;;;13099877;22;20169;-87
2021/05/19 21:17:46;;;;;;;5.63;2.80;;;;;;;;;;13096914;22;20204;-87
2021/05/19 21:22:49;;;;;;;5.70;2.63;;;;;;;;;;13103841;22;20199;-87
2021/05/19 21:27:52;;;;;;;8.97;3.73;;;;;;;;;;13104718;22;20185;-88
2021/05/19 21:32:55;;;;;;;5.63;3.63;;;;;;;;;;13077167;22;20173;-88
2021/05/19 21:37:58;;;;;;;7.47;4.13;;;;;;;;;;13100532;22;20220;-87
2021/05/19 21:43:05;;;;;;;5.27;3.80;;;;;;;;;;13098611;22;20180;-88
2021/05/19 21:48:08;;;;;;;9.13;4.20;;;;;;;;;;13075225;22;20654;-88
2021/05/19 21:53:11;;;;;;;6.33;4.27;;;;;;;;;;13079040;22;20173;-89
2021/05/19 21:58:14;;;;;;;7.73;5.20;;;;;;;;;;13099724;22;20227;-87
2021/05/19 22:03:17;;;;;;;9.70;6.67;;;;;;;;;;13078328;22;20193;-86
2021/05/19 22:08:21;;;;;;;10.83;7.50;;;;;;;;;;13097982;22;20184;-88
2021/05/19 22:13:24;;;;;;;13.40;8.00;;;;;;;;;;13102151;22;20183;-88
2021/05/19 22:18:32;;;;;;;12.07;9.30;;;;;;;;;;13082879;22;20679;-89
2021/05/19 22:28:58;;;;;;;13.93;9.43;;;;;;;;;;13101070;22;20180;-88
2021/05/19 22:34:01;;;;;;;14.23;9.10;;;;;;;;;;13095823;22;20261;-87
2021/05/19 22:39:05;;;;;;;12.63;9.23;;;;;;;;;;13080855;22;20209;-90
2021/05/19 22:44:09;;;;;;;16.07;9.77;;;;;;;;;;13099439;22;20195;-88
2021/05/19 22:49:11;;;;;;;16.17;9.87;;;;;;;;;;13077734;22;20169;-86
2021/05/19 22:54:15;;;;;;;13.63;9.80;;;;;;;;;;13098457;22;20179;-88
2021/05/19 22:59:17;;;;;;;15.00;10.27;;;;;;;;;;13097792;22;20210;-89
2021/05/19 23:04:20;;;;;;;13.70;9.77;;;;;;;;;;13095599;22;20193;-87
2021/05/19 23:09:23;;;;;;;14.27;10.00;;;;;;;;;;13104196;22;20252;-86
2021/05/19 23:14:26;;;;;;;12.63;9.30;;;;;;;;;;13103960;22;20169;-86
2021/05/19 23:19:28;;;;;;;14.53;10.47;;;;;;;;;;13104012;22;20228;-86
2021/05/19 23:24:32;;;;;;;13.07;10.20;;;;;;;;;;13101703;22;20378;-87
2021/05/19 23:29:34;;;;;;;16.70;9.77;;;;;;;;;;13102169;22;20234;-88
2021/05/19 23:34:36;;;;;;;14.80;11.00;;;;;;;;;;13098883;22;20251;-88
2021/05/19 23:39:40;;;;;;;16.27;10.87;;;;;;;;;;13082797;22;20228;-86
2021/05/19 23:44:42;;;;;;;15.60;10.43;;;;;;;;;;13101393;22;20671;-87
2021/05/19 23:49:47;;;;;;;15.70;10.57;;;;;;;;;;13102938;22;20196;-89
2021/05/19 23:54:51;;;;;;;14.73;10.67;;;;;;;;;;13101903;22;20177;-88
2021/05/19 23:59:53;;;;;;;13.93;10.33;;;;;;;;;;13104154;22;20240;-86
